createdAt,value
2022-12-01T00:02:51.687Z,100464.91
2022-12-01T00:03:39.035Z,100467.56
2022-12-01T00:04:25.844Z,100466.50
2022-12-01T00:05:12.589Z,100462.25
2022-12-01T00:06:01.312Z,100464.06
2022-12-01T00:06:48.433Z,100460.28
2022-12-01T00:07:35.327Z,100459.09
2022-12-01T00:08:22.353Z,100461.16
2022-12-01T00:09:28.282Z,100460.06
2022-12-01T00:10:27.367Z,100453.87
2022-12-01T00:11:14.240Z,100452.91
2022-12-01T00:12:01.272Z,100454.97
2022-12-01T00:13:49.493Z,100463.22
2022-12-01T00:15:53.433Z,100463.34
2022-12-01T00:16:41.359Z,100457.28
2022-12-01T00:17:30.391Z,100463.94
2022-12-01T00:18:17.516Z,100459.97
2022-12-01T00:19:04.542Z,100462.12
2022-12-01T00:19:51.423Z,100460.41
2022-12-01T00:23:57.992Z,100463.59
2022-12-01T00:24:45.432Z,100460.19
2022-12-01T00:25:32.620Z,100473.66
2022-12-01T00:26:20.402Z,100470.03
2022-12-01T00:27:07.230Z,100464.31
2022-12-01T00:27:54.776Z,100462.59
2022-12-01T00:28:41.957Z,100473.53
2022-12-01T00:29:28.920Z,100465.03
2022-12-01T00:30:16.184Z,100471.22
2022-12-01T00:31:07.831Z,100477.63
2022-12-01T00:31:54.755Z,100472.50
2022-12-01T00:32:41.757Z,100473.72
2022-12-01T00:33:28.734Z,100467.91
2022-12-01T00:34:23.175Z,100472.03
2022-12-01T00:35:10.219Z,100470.47
2022-12-01T00:36:00.664Z,100475.69
2022-12-01T00:36:47.438Z,100475.19
2022-12-01T00:37:35.467Z,100475.88
2022-12-01T00:38:22.303Z,100476.38
2022-12-01T00:39:10.035Z,100477.00
2022-12-01T00:39:57.537Z,100471.03
2022-12-01T00:40:44.405Z,100474.44
2022-12-01T00:41:31.237Z,100476.00
2022-12-01T00:42:20.969Z,100473.47
2022-12-01T00:43:07.965Z,100475.00
2022-12-01T00:43:54.984Z,100479.12
2022-12-01T00:44:41.854Z,100480.69
2022-12-01T00:45:28.678Z,100480.94
2022-12-01T00:46:15.721Z,100480.41
2022-12-01T00:47:02.630Z,100487.81
2022-12-01T00:47:49.477Z,100482.50
2022-12-01T00:48:37.290Z,100487.75
2022-12-01T00:49:24.235Z,100483.78
2022-12-01T00:50:11.484Z,100487.44
2022-12-01T00:50:58.357Z,100485.81
2022-12-01T00:51:45.373Z,100486.06
2022-12-01T00:52:32.236Z,100487.19
2022-12-01T00:53:19.514Z,100485.91
2022-12-01T00:54:06.363Z,100489.50
2022-12-01T00:54:53.120Z,100495.69
2022-12-01T00:55:40.538Z,100494.44
2022-12-01T00:56:27.387Z,100489.13
2022-12-01T00:57:14.242Z,100495.94
2022-12-01T00:58:01.052Z,100486.47
2022-12-01T00:58:47.906Z,100488.84
2022-12-01T00:59:35.978Z,100492.69
2022-12-01T01:00:22.826Z,100495.00
2022-12-01T01:01:09.737Z,100498.16
2022-12-01T01:01:56.768Z,100495.50
2022-12-01T01:02:44.103Z,100502.41
2022-12-01T01:03:32.384Z,100491.63
2022-12-01T01:04:19.643Z,100499.75
2022-12-01T01:05:07.499Z,100502.50
2022-12-01T01:05:54.544Z,100496.19
2022-12-01T01:06:43.503Z,100496.62
2022-12-01T01:07:30.929Z,100498.19
2022-12-01T01:08:17.821Z,100490.56
2022-12-01T01:09:04.729Z,100494.97
2022-12-01T01:09:51.569Z,100490.84
2022-12-01T01:10:39.682Z,100500.25
2022-12-01T01:11:26.554Z,100493.56
2022-12-01T01:12:13.363Z,100493.75
2022-12-01T01:13:00.287Z,100498.47
2022-12-01T01:13:47.313Z,100494.22
2022-12-01T01:14:34.209Z,100498.22
2022-12-01T01:15:21.881Z,100500.66
2022-12-01T01:16:22.077Z,100497.00
2022-12-01T01:17:09.147Z,100496.62
2022-12-01T01:17:55.963Z,100496.84
2022-12-01T01:18:43.043Z,100495.31
2022-12-01T01:19:29.949Z,100495.31
2022-12-01T01:20:16.870Z,100492.25
2022-12-01T01:21:08.876Z,100494.28
2022-12-01T01:21:55.732Z,100494.94
2022-12-01T01:22:42.591Z,100492.81
2022-12-01T01:23:29.618Z,100498.37
2022-12-01T01:24:16.471Z,100510.50
2022-12-01T01:25:03.385Z,100505.19
2022-12-01T01:25:50.212Z,100503.56
2022-12-01T01:26:38.004Z,100504.31
2022-12-01T01:27:24.865Z,100505.09
2022-12-01T01:28:11.674Z,100507.31
2022-12-01T01:29:00.385Z,100503.72
2022-12-01T01:29:47.577Z,100494.28
2022-12-01T01:30:34.841Z,100504.03
2022-12-01T01:31:23.424Z,100496.91
2022-12-01T01:32:10.256Z,100506.72
2022-12-01T01:32:57.112Z,100508.84
2022-12-01T01:33:44.565Z,100502.22
2022-12-01T01:34:31.438Z,100505.09
2022-12-01T01:35:18.279Z,100502.78
2022-12-01T01:36:05.808Z,100505.22
2022-12-01T01:36:52.601Z,100497.91
2022-12-01T01:37:39.491Z,100498.53
2022-12-01T01:38:27.094Z,100508.34
2022-12-01T01:39:13.954Z,100498.09
2022-12-01T01:40:00.778Z,100499.78
2022-12-01T01:40:47.627Z,100498.44
2022-12-01T01:41:34.546Z,100502.28
2022-12-01T01:42:22.256Z,100505.28
2022-12-01T01:43:38.208Z,100501.00
2022-12-01T01:44:50.963Z,100500.06
2022-12-01T01:45:37.980Z,100503.69
2022-12-01T01:46:30.240Z,100500.75
2022-12-01T01:47:22.572Z,100505.75
2022-12-01T01:48:10.992Z,100504.25
2022-12-01T01:49:00.848Z,100501.37
2022-12-01T01:49:48.152Z,100497.22
2022-12-01T01:50:35.397Z,100501.50
2022-12-01T01:51:30.311Z,100502.00
2022-12-01T01:52:17.876Z,100506.16
2022-12-01T01:53:09.550Z,100507.31
2022-12-01T01:53:59.521Z,100507.00
2022-12-01T01:54:48.672Z,100507.09
2022-12-01T01:55:36.052Z,100510.00
2022-12-01T01:56:23.438Z,100504.56
2022-12-01T01:57:12.370Z,100500.94
2022-12-01T01:58:00.010Z,100502.09
2022-12-01T01:58:47.561Z,100495.00
2022-12-01T01:59:47.531Z,100503.38
2022-12-01T02:00:34.520Z,100496.78
2022-12-01T02:01:22.131Z,100502.97
2022-12-01T02:02:11.230Z,100503.81
2022-12-01T02:02:58.451Z,100502.66
2022-12-01T02:03:45.835Z,100502.44
2022-12-01T02:04:37.513Z,100506.69
2022-12-01T02:05:27.313Z,100502.78
2022-12-01T02:06:14.431Z,100503.00
2022-12-01T02:07:01.362Z,100500.34
2022-12-01T02:07:48.800Z,100499.38
2022-12-01T02:08:36.588Z,100499.47
2022-12-01T02:09:23.438Z,100503.50
2022-12-01T02:10:12.366Z,100502.66
2022-12-01T02:11:06.747Z,100502.97
2022-12-01T02:12:15.393Z,100504.66
2022-12-01T02:13:13.149Z,100496.59
2022-12-01T02:14:44.440Z,100500.94
2022-12-01T02:15:39.566Z,100499.34
2022-12-01T02:16:49.147Z,100501.50
2022-12-01T02:18:02.138Z,100497.53
2022-12-01T02:19:25.914Z,100496.34
2022-12-01T02:20:59.763Z,100496.88
2022-12-01T02:22:37.183Z,100494.00
2022-12-01T02:23:38.946Z,100497.63
2022-12-01T02:24:48.714Z,100494.63
2022-12-01T02:26:03.677Z,100493.59
2022-12-01T02:27:02.060Z,100498.37
2022-12-01T02:28:14.582Z,100492.44
2022-12-01T02:29:39.150Z,100491.88
2022-12-01T02:30:41.578Z,100489.34
2022-12-01T02:31:40.460Z,100488.69
2022-12-01T02:32:40.540Z,100492.22
2022-12-01T02:33:35.458Z,100484.81
2022-12-01T02:34:27.874Z,100488.84
2022-12-01T02:35:33.133Z,100480.97
2022-12-01T02:36:36.206Z,100484.69
2022-12-01T02:37:52.529Z,100478.84
2022-12-01T02:38:52.244Z,100480.78
2022-12-01T02:39:45.552Z,100482.03
2022-12-01T02:40:44.177Z,100476.44
2022-12-01T02:41:41.597Z,100480.13
2022-12-01T02:42:53.882Z,100478.53
2022-12-01T02:44:07.879Z,100470.56
2022-12-01T02:44:55.160Z,100473.88
2022-12-01T02:46:11.601Z,100473.47
2022-12-01T02:47:10.670Z,100465.34
2022-12-01T02:48:01.849Z,100470.47
2022-12-01T02:48:50.682Z,100461.66
2022-12-01T02:49:42.409Z,100459.28
2022-12-01T02:50:31.878Z,100462.69
2022-12-01T02:51:31.387Z,100456.03
2022-12-01T02:52:19.272Z,100454.97
2022-12-01T02:53:08.437Z,100453.78
2022-12-01T02:53:56.705Z,100456.03
2022-12-01T02:54:44.862Z,100463.03
2022-12-01T02:55:31.786Z,100461.56
2022-12-01T02:56:21.526Z,100457.94
2022-12-01T02:57:12.085Z,100463.28
2022-12-01T02:57:58.835Z,100468.03
2022-12-01T02:58:45.707Z,100460.94
2022-12-01T02:59:32.630Z,100465.38
2022-12-01T03:00:19.740Z,100461.78
2022-12-01T03:01:06.568Z,100465.59
2022-12-01T03:02:13.622Z,100454.00
2022-12-01T03:03:09.689Z,100457.94
2022-12-01T03:04:01.249Z,100455.06
2022-12-01T03:04:59.029Z,100459.31
2022-12-01T03:06:02.249Z,100455.62
2022-12-01T03:07:04.238Z,100459.75
2022-12-01T03:08:13.918Z,100459.31
2022-12-01T03:09:11.015Z,100451.13
2022-12-01T03:10:12.823Z,100459.31
2022-12-01T03:11:00.375Z,100462.28
2022-12-01T03:11:59.826Z,100452.41
2022-12-01T03:13:09.028Z,100456.88
2022-12-01T03:14:10.774Z,100460.59
2022-12-01T03:15:16.173Z,100456.34
2022-12-01T03:16:20.622Z,100455.28
2022-12-01T03:17:16.301Z,100456.97
2022-12-01T03:18:34.391Z,100463.78
2022-12-01T03:19:38.177Z,100464.44
2022-12-01T03:20:42.772Z,100461.22
2022-12-01T03:21:42.814Z,100464.09
2022-12-01T03:22:37.739Z,100465.50
2022-12-01T03:23:27.994Z,100470.81
2022-12-01T03:24:16.422Z,100469.09
2022-12-01T03:25:04.921Z,100468.44
2022-12-01T03:25:52.863Z,100472.38
2022-12-01T03:26:41.961Z,100474.94
2022-12-01T03:27:32.081Z,100474.94
2022-12-01T03:28:22.996Z,100465.06
2022-12-01T03:29:14.195Z,100475.69
2022-12-01T03:30:02.859Z,100478.13
2022-12-01T03:30:52.947Z,100471.84
2022-12-01T03:31:44.157Z,100473.88
2022-12-01T03:32:32.188Z,100477.69
2022-12-01T03:33:27.382Z,100479.38
2022-12-01T03:34:29.694Z,100477.06
2022-12-01T03:35:23.841Z,100479.06
2022-12-01T03:36:15.597Z,100474.06
2022-12-01T03:37:07.302Z,100488.31
2022-12-01T03:38:00.755Z,100477.59
2022-12-01T03:38:52.866Z,100485.00
2022-12-01T03:39:40.348Z,100483.94
2022-12-01T03:40:28.838Z,100487.03
2022-12-01T03:41:29.808Z,100486.84
2022-12-01T03:42:41.316Z,100487.56
2022-12-01T03:43:36.623Z,100483.19
2022-12-01T03:44:29.944Z,100484.37
2022-12-01T03:45:24.062Z,100476.22
2022-12-01T03:46:17.916Z,100475.91
2022-12-01T03:47:07.797Z,100476.66
2022-12-01T03:47:55.008Z,100480.78
2022-12-01T03:48:42.262Z,100472.72
2022-12-01T03:49:29.522Z,100474.41
2022-12-01T03:50:18.806Z,100483.03
2022-12-01T03:51:20.777Z,100488.34
2022-12-01T03:52:36.193Z,100477.81
2022-12-01T03:53:27.732Z,100482.19
2022-12-01T03:54:17.575Z,100484.28
2022-12-01T03:55:13.984Z,100488.53
2022-12-01T03:56:04.230Z,100488.03
2022-12-01T03:56:55.759Z,100482.47
2022-12-01T03:58:04.024Z,100489.59
2022-12-01T03:58:54.381Z,100481.03
2022-12-01T03:59:42.190Z,100478.03
2022-12-01T04:00:29.725Z,100483.44
2022-12-01T04:01:16.743Z,100488.53
2022-12-01T04:02:03.724Z,100484.28
2022-12-01T04:02:58.374Z,100490.56
2022-12-01T04:03:46.631Z,100486.94
2022-12-01T04:04:33.484Z,100493.00
2022-12-01T04:05:25.172Z,100489.41
2022-12-01T04:06:12.365Z,100489.69
2022-12-01T04:06:59.159Z,100487.59
2022-12-01T04:07:46.144Z,100488.03
2022-12-01T04:08:34.058Z,100481.97
2022-12-01T04:09:20.910Z,100480.16
2022-12-01T04:10:08.710Z,100485.38
2022-12-01T04:10:55.524Z,100496.00
2022-12-01T04:12:01.971Z,100495.25
2022-12-01T04:12:49.024Z,100494.31
2022-12-01T04:13:37.113Z,100494.06
2022-12-01T04:14:24.067Z,100494.28
2022-12-01T04:15:12.971Z,100502.88
2022-12-01T04:16:00.179Z,100506.28
2022-12-01T04:16:47.152Z,100518.50
2022-12-01T04:17:34.513Z,100508.75
2022-12-01T04:18:21.972Z,100510.53
2022-12-01T04:19:08.932Z,100506.28
2022-12-01T04:19:56.063Z,100511.69
2022-12-01T04:20:43.800Z,100507.13
2022-12-01T04:21:30.863Z,100510.91
2022-12-01T04:22:17.960Z,100511.22
2022-12-01T04:23:04.818Z,100514.44
2022-12-01T04:24:00.509Z,100506.25
2022-12-01T04:24:47.423Z,100511.37
2022-12-01T04:25:34.308Z,100515.28
2022-12-01T04:26:21.154Z,100514.75
2022-12-01T04:27:08.051Z,100518.16
2022-12-01T04:27:54.965Z,100509.53
2022-12-01T04:28:41.767Z,100511.22
2022-12-01T04:29:28.603Z,100516.00
2022-12-01T04:30:15.602Z,100512.69
2022-12-01T04:31:02.494Z,100513.53
2022-12-01T04:31:49.495Z,100513.88
2022-12-01T04:32:42.155Z,100507.94
2022-12-01T04:33:29.765Z,100508.56
2022-12-01T04:34:16.762Z,100513.53
2022-12-01T04:35:03.637Z,100511.41
2022-12-01T04:36:00.563Z,100515.88
2022-12-01T04:36:47.510Z,100514.50
2022-12-01T04:37:34.444Z,100506.22
2022-12-01T04:38:24.994Z,100514.28
2022-12-01T04:39:15.932Z,100513.44
2022-12-01T04:40:02.767Z,100509.41
2022-12-01T04:40:49.742Z,100505.88
2022-12-01T04:41:36.699Z,100512.66
2022-12-01T04:42:23.764Z,100510.41
2022-12-01T04:43:10.568Z,100496.94
2022-12-01T04:43:57.597Z,100503.19
2022-12-01T04:44:44.642Z,100500.91
2022-12-01T04:45:31.512Z,100497.78
2022-12-01T04:46:18.440Z,100498.53
2022-12-01T04:47:06.050Z,100500.12
2022-12-01T04:47:53.481Z,100499.06
2022-12-01T04:48:40.530Z,100498.03
2022-12-01T04:49:27.504Z,100488.22
2022-12-01T04:50:14.495Z,100495.34
2022-12-01T04:51:01.330Z,100494.69
2022-12-01T04:51:48.788Z,100490.53
2022-12-01T04:52:37.534Z,100493.25
2022-12-01T04:53:24.382Z,100483.63
2022-12-01T04:54:11.443Z,100494.09
2022-12-01T04:54:58.263Z,100487.13
2022-12-01T04:55:45.203Z,100489.22
2022-12-01T04:56:33.706Z,100488.72
2022-12-01T04:57:20.521Z,100494.28
2022-12-01T04:58:07.581Z,100484.91
2022-12-01T04:58:54.399Z,100497.06
2022-12-01T04:59:41.260Z,100491.00
2022-12-01T05:00:28.219Z,100489.47
2022-12-01T05:01:17.609Z,100495.63
2022-12-01T05:02:04.586Z,100483.50
2022-12-01T05:02:51.433Z,100486.38
2022-12-01T05:03:39.487Z,100488.25
2022-12-01T05:04:26.365Z,100479.47
2022-12-01T05:05:14.322Z,100481.81
2022-12-01T05:06:15.503Z,100484.06
2022-12-01T05:07:02.269Z,100486.38
2022-12-01T05:07:49.209Z,100487.50
2022-12-01T05:08:36.229Z,100486.06
2022-12-01T05:09:23.104Z,100480.66
2022-12-01T05:10:10.155Z,100491.72
2022-12-01T05:10:57.217Z,100482.91
2022-12-01T05:11:44.121Z,100478.75
2022-12-01T05:12:30.944Z,100487.03
2022-12-01T05:13:17.854Z,100481.06
2022-12-01T05:14:04.729Z,100479.91
2022-12-01T05:14:51.593Z,100487.13
2022-12-01T05:15:38.598Z,100488.34
2022-12-01T05:16:28.432Z,100489.78
2022-12-01T05:17:15.312Z,100495.28
2022-12-01T05:18:02.258Z,100494.22
2022-12-01T05:18:51.042Z,100494.09
2022-12-01T05:19:56.962Z,100500.16
2022-12-01T05:20:59.089Z,100499.16
2022-12-01T05:21:47.665Z,100498.63
2022-12-01T05:23:03.927Z,100498.63
2022-12-01T05:23:41.363Z,100497.56
2022-12-01T05:24:28.288Z,100496.81
2022-12-01T05:25:15.270Z,100492.81
2022-12-01T05:26:04.166Z,100494.41
2022-12-01T05:26:51.034Z,100495.13
2022-12-01T05:27:37.857Z,100497.56
2022-12-01T05:28:27.010Z,100493.12
2022-12-01T05:29:14.138Z,100498.63
2022-12-01T05:30:00.951Z,100498.19
2022-12-01T05:30:48.583Z,100496.38
2022-12-01T05:31:36.141Z,100505.00
2022-12-01T05:32:23.015Z,100500.91
2022-12-01T05:33:09.990Z,100506.22
2022-12-01T05:33:57.060Z,100505.22
2022-12-01T05:34:43.921Z,100503.31
2022-12-01T05:35:30.859Z,100508.25
2022-12-01T05:36:17.716Z,100510.03
2022-12-01T05:37:04.641Z,100515.34
2022-12-01T05:37:51.492Z,100525.03
2022-12-01T05:38:38.340Z,100520.47
2022-12-01T05:39:25.351Z,100517.59
2022-12-01T05:40:12.481Z,100524.31
2022-12-01T05:40:59.319Z,100523.34
2022-12-01T05:41:46.230Z,100524.31
2022-12-01T05:42:33.095Z,100521.87
2022-12-01T05:43:25.408Z,100527.19
2022-12-01T05:44:15.681Z,100532.44
2022-12-01T05:45:02.571Z,100534.03
2022-12-01T05:45:52.173Z,100533.69
2022-12-01T05:46:39.011Z,100537.56
2022-12-01T05:47:25.832Z,100527.72
2022-12-01T05:48:12.664Z,100533.31
2022-12-01T05:48:59.553Z,100533.41
2022-12-01T05:49:46.590Z,100536.38
2022-12-01T05:50:33.790Z,100534.31
2022-12-01T05:51:20.691Z,100540.47
2022-12-01T05:52:07.503Z,100533.47
2022-12-01T05:52:54.397Z,100539.78
2022-12-01T05:53:41.283Z,100538.31
2022-12-01T05:54:30.677Z,100533.94
2022-12-01T05:55:17.681Z,100531.56
2022-12-01T05:56:05.440Z,100531.28
2022-12-01T05:56:52.353Z,100528.84
2022-12-01T05:57:39.430Z,100535.53
2022-12-01T05:58:26.329Z,100537.03
2022-12-01T05:59:13.246Z,100537.12
2022-12-01T06:00:00.533Z,100534.97
2022-12-01T06:00:47.487Z,100533.25
2022-12-01T06:01:34.443Z,100533.09
2022-12-01T06:02:21.495Z,100531.19
2022-12-01T06:03:08.428Z,100533.00
2022-12-01T06:03:55.405Z,100535.44
2022-12-01T06:04:42.307Z,100533.84
2022-12-01T06:05:29.571Z,100532.03
2022-12-01T06:06:16.509Z,100532.13
2022-12-01T06:07:03.535Z,100532.50
2022-12-01T06:07:50.534Z,100535.16
2022-12-01T06:08:37.636Z,100527.19
2022-12-01T06:09:24.460Z,100533.34
2022-12-01T06:10:12.216Z,100530.22
2022-12-01T06:10:59.264Z,100531.19
2022-12-01T06:11:49.017Z,100536.03
2022-12-01T06:12:39.269Z,100529.84
2022-12-01T06:13:26.375Z,100534.31
2022-12-01T06:14:13.270Z,100530.44
2022-12-01T06:15:00.475Z,100538.19
2022-12-01T06:15:56.455Z,100538.31
2022-12-01T06:16:43.334Z,100538.31
2022-12-01T06:17:30.286Z,100540.53
2022-12-01T06:18:17.208Z,100542.25
2022-12-01T06:19:04.096Z,100544.63
2022-12-01T06:19:51.203Z,100540.38
2022-12-01T06:20:38.448Z,100544.81
2022-12-01T06:21:25.362Z,100543.13
2022-12-01T06:22:12.422Z,100534.22
2022-12-01T06:22:59.810Z,100539.25
2022-12-01T06:23:46.691Z,100543.69
2022-12-01T06:24:33.563Z,100541.13
2022-12-01T06:25:20.620Z,100539.75
2022-12-01T06:26:07.693Z,100548.63
2022-12-01T06:26:54.633Z,100540.75
2022-12-01T06:27:41.570Z,100544.56
2022-12-01T06:28:28.529Z,100540.75
2022-12-01T06:29:15.361Z,100549.13
2022-12-01T06:30:02.606Z,100542.69
2022-12-01T06:30:49.496Z,100545.34
2022-12-01T06:31:36.621Z,100545.59
2022-12-01T06:32:23.700Z,100542.47
2022-12-01T06:33:10.569Z,100542.47
2022-12-01T06:33:57.370Z,100549.56
2022-12-01T06:34:44.300Z,100553.94
2022-12-01T06:35:31.158Z,100550.31
2022-12-01T06:36:18.169Z,100551.75
2022-12-01T06:37:05.066Z,100545.69
2022-12-01T06:37:54.495Z,100548.44
2022-12-01T06:38:41.368Z,100545.59
2022-12-01T06:39:28.253Z,100545.81
2022-12-01T06:40:15.192Z,100550.13
2022-12-01T06:41:02.229Z,100545.13
2022-12-01T06:41:49.505Z,100542.37
2022-12-01T06:42:36.333Z,100547.56
2022-12-01T06:43:23.202Z,100549.28
2022-12-01T06:44:10.884Z,100542.37
2022-12-01T06:44:57.874Z,100543.03
2022-12-01T06:45:44.859Z,100541.91
2022-12-01T06:46:31.951Z,100548.16
2022-12-01T06:47:18.900Z,100551.47
2022-12-01T06:48:05.861Z,100551.47
2022-12-01T06:48:53.321Z,100554.97
2022-12-01T06:49:40.335Z,100553.84
2022-12-01T06:50:27.279Z,100550.62
2022-12-01T06:51:14.202Z,100546.66
2022-12-01T06:52:01.291Z,100546.72
2022-12-01T06:52:48.215Z,100548.34
2022-12-01T06:53:35.154Z,100550.06
2022-12-01T06:54:22.155Z,100547.50
2022-12-01T06:55:09.436Z,100554.50
2022-12-01T06:56:03.595Z,100551.47
2022-12-01T06:56:50.746Z,100560.53
2022-12-01T06:57:37.866Z,100557.91
2022-12-01T06:58:25.138Z,100557.12
2022-12-01T06:59:12.568Z,100558.78
2022-12-01T06:59:59.938Z,100559.78
2022-12-01T07:00:51.858Z,100567.88
2022-12-01T07:01:39.395Z,100553.72
2022-12-01T07:02:26.385Z,100553.94
2022-12-01T07:03:13.564Z,100558.78
2022-12-01T07:04:01.055Z,100560.66
2022-12-01T07:04:47.928Z,100558.56
2022-12-01T07:05:34.808Z,100558.19
2022-12-01T07:06:21.855Z,100558.19
2022-12-01T07:07:08.828Z,100562.72
2022-12-01T07:07:59.432Z,100560.25
2022-12-01T07:08:47.002Z,100565.28
2022-12-01T07:09:34.422Z,100552.88
2022-12-01T07:10:21.740Z,100554.31
2022-12-01T07:11:12.696Z,100559.31
2022-12-01T07:11:59.645Z,100557.88
2022-12-01T07:12:46.609Z,100552.19
2022-12-01T07:13:34.550Z,100564.78
2022-12-01T07:14:25.409Z,100552.50
2022-12-01T07:15:12.391Z,100548.03
2022-12-01T07:15:59.386Z,100556.16
2022-12-01T07:16:46.439Z,100550.81
2022-12-01T07:17:34.063Z,100559.09
2022-12-01T07:18:21.050Z,100555.37
2022-12-01T07:19:08.080Z,100552.25
2022-12-01T07:19:55.004Z,100556.94
2022-12-01T07:20:41.960Z,100553.88
2022-12-01T07:21:28.864Z,100551.06
2022-12-01T07:22:16.188Z,100550.25
2022-12-01T07:23:03.074Z,100546.84
2022-12-01T07:23:49.900Z,100544.84
2022-12-01T07:24:36.824Z,100544.00
2022-12-01T07:25:23.723Z,100541.13
2022-12-01T07:26:16.125Z,100544.31
2022-12-01T07:27:02.934Z,100540.31
2022-12-01T07:27:49.867Z,100537.75
2022-12-01T07:28:36.787Z,100534.38
2022-12-01T07:29:23.689Z,100538.97
2022-12-01T07:30:10.993Z,100542.28
2022-12-01T07:31:07.887Z,100542.06
2022-12-01T07:31:55.179Z,100541.22
2022-12-01T07:32:42.100Z,100541.13
2022-12-01T07:33:28.937Z,100546.63
2022-12-01T07:34:15.914Z,100542.91
2022-12-01T07:35:02.862Z,100544.50
2022-12-01T07:35:49.750Z,100545.59
2022-12-01T07:36:36.653Z,100536.19
2022-12-01T07:37:23.493Z,100543.03
2022-12-01T07:38:10.404Z,100549.19
2022-12-01T07:38:57.399Z,100554.81
2022-12-01T07:39:44.331Z,100543.75
2022-12-01T07:40:31.215Z,100553.44
2022-12-01T07:41:19.477Z,100552.25
2022-12-01T07:42:06.432Z,100553.41
2022-12-01T07:42:53.351Z,100554.25
2022-12-01T07:43:40.753Z,100551.59
2022-12-01T07:44:27.741Z,100543.91
2022-12-01T07:45:14.787Z,100552.44
2022-12-01T07:46:09.121Z,100547.00
2022-12-01T07:46:56.107Z,100548.81
2022-12-01T07:47:44.665Z,100547.72
2022-12-01T07:48:31.552Z,100553.59
2022-12-01T07:49:18.629Z,100542.94
2022-12-01T07:50:06.170Z,100549.63
2022-12-01T07:50:56.016Z,100542.56
2022-12-01T07:51:43.083Z,100541.59
2022-12-01T07:52:29.991Z,100543.41
2022-12-01T07:53:16.849Z,100547.56
2022-12-01T07:54:05.760Z,100549.28
2022-12-01T07:54:52.990Z,100548.09
2022-12-01T07:55:39.830Z,100544.75
2022-12-01T07:56:26.693Z,100545.53
2022-12-01T07:57:14.979Z,100544.22
2022-12-01T07:58:01.939Z,100547.62
2022-12-01T07:58:49.125Z,100545.75
2022-12-01T07:59:36.002Z,100552.09
2022-12-01T08:00:22.998Z,100544.38
2022-12-01T08:01:12.734Z,100554.88
2022-12-01T08:01:59.763Z,100557.62
2022-12-01T08:02:49.343Z,100547.12
2022-12-01T08:03:37.108Z,100557.44
2022-12-01T08:04:24.095Z,100554.75
2022-12-01T08:05:11.021Z,100551.34
2022-12-01T08:06:01.852Z,100556.09
2022-12-01T08:06:48.810Z,100552.03
2022-12-01T08:07:36.665Z,100556.25
2022-12-01T08:08:23.558Z,100564.25
2022-12-01T08:09:10.434Z,100548.81
2022-12-01T08:09:57.410Z,100554.63
2022-12-01T08:10:44.275Z,100544.22
2022-12-01T08:11:31.203Z,100545.44
2022-12-01T08:12:18.167Z,100553.78
2022-12-01T08:13:05.124Z,100549.91
2022-12-01T08:13:53.316Z,100546.78
2022-12-01T08:14:40.142Z,100553.34
2022-12-01T08:15:26.996Z,100546.06
2022-12-01T08:16:16.164Z,100545.84
2022-12-01T08:17:03.074Z,100546.56
2022-12-01T08:17:49.987Z,100548.03
2022-12-01T08:18:38.635Z,100540.75
2022-12-01T08:19:26.073Z,100544.63
2022-12-01T08:20:13.073Z,100544.38
2022-12-01T08:20:59.917Z,100547.19
2022-12-01T08:21:46.813Z,100547.75
2022-12-01T08:22:33.794Z,100547.53
2022-12-01T08:23:20.694Z,100553.59
2022-12-01T08:24:07.846Z,100543.53
2022-12-01T08:24:54.740Z,100551.88
2022-12-01T08:25:41.633Z,100554.31
2022-12-01T08:26:28.490Z,100553.72
2022-12-01T08:27:15.533Z,100541.81
2022-12-01T08:28:02.529Z,100542.44
2022-12-01T08:28:49.844Z,100545.00
2022-12-01T08:29:36.719Z,100544.59
2022-12-01T08:30:23.842Z,100550.66
2022-12-01T08:31:20.952Z,100547.88
2022-12-01T08:32:08.380Z,100544.56
2022-12-01T08:32:56.916Z,100554.97
2022-12-01T08:33:43.876Z,100547.09
2022-12-01T08:34:30.755Z,100549.25
2022-12-01T08:35:17.709Z,100543.78
2022-12-01T08:36:05.792Z,100543.69
2022-12-01T08:36:52.705Z,100543.03
2022-12-01T08:37:39.589Z,100548.59
2022-12-01T08:38:26.487Z,100549.91
2022-12-01T08:39:13.490Z,100548.53
2022-12-01T08:40:00.678Z,100552.03
2022-12-01T08:40:47.790Z,100549.69
2022-12-01T08:41:34.942Z,100551.97
2022-12-01T08:42:21.975Z,100559.47
2022-12-01T08:43:12.362Z,100554.34
2022-12-01T08:44:05.644Z,100560.22
2022-12-01T08:44:55.464Z,100561.12
2022-12-01T08:45:42.584Z,100561.44
2022-12-01T08:46:32.913Z,100554.84
2022-12-01T08:47:19.860Z,100556.13
2022-12-01T08:48:06.685Z,100561.81
2022-12-01T08:48:55.205Z,100561.56
2022-12-01T08:49:42.076Z,100559.06
2022-12-01T08:50:29.261Z,100564.59
2022-12-01T08:51:18.125Z,100558.97
2022-12-01T08:52:04.946Z,100560.53
2022-12-01T08:52:51.866Z,100558.13
2022-12-01T08:53:45.440Z,100560.13
2022-12-01T08:54:32.782Z,100550.56
2022-12-01T08:55:20.738Z,100549.31
2022-12-01T08:56:29.304Z,100556.38
2022-12-01T08:57:16.043Z,100563.38
2022-12-01T08:58:02.846Z,100549.75
2022-12-01T08:58:51.196Z,100554.53
2022-12-01T08:59:38.019Z,100548.19
2022-12-01T09:00:24.930Z,100551.53
2022-12-01T09:01:15.749Z,100555.09
2022-12-01T09:02:06.915Z,100555.66
2022-12-01T09:02:54.222Z,100566.13
2022-12-01T09:03:41.778Z,100564.00
2022-12-01T09:04:28.843Z,100562.00
2022-12-01T09:05:15.824Z,100551.31
2022-12-01T09:06:20.504Z,100567.53
2022-12-01T09:07:10.849Z,100561.84
2022-12-01T09:08:18.074Z,100563.50
2022-12-01T09:09:05.398Z,100563.25
2022-12-01T09:09:52.300Z,100568.16
2022-12-01T09:10:39.258Z,100563.25
2022-12-01T09:11:26.603Z,100565.41
2022-12-01T09:12:13.572Z,100562.97
2022-12-01T09:13:00.747Z,100568.78
2022-12-01T09:13:53.020Z,100569.19
2022-12-01T09:14:46.249Z,100566.53
2022-12-01T09:15:33.210Z,100566.13
2022-12-01T09:16:20.236Z,100569.50
2022-12-01T09:17:07.948Z,100564.00
2022-12-01T09:17:55.246Z,100572.44
2022-12-01T09:18:42.973Z,100564.00
2022-12-01T09:19:30.242Z,100570.22
2022-12-01T09:20:17.113Z,100577.13
2022-12-01T09:21:30.964Z,100573.16
2022-12-01T09:22:18.096Z,100569.28
2022-12-01T09:23:05.085Z,100572.09
2022-12-01T09:23:52.272Z,100574.47
2022-12-01T09:24:39.655Z,100580.84
2022-12-01T09:25:26.603Z,100574.50
2022-12-01T09:26:18.379Z,100571.66
2022-12-01T09:27:05.551Z,100576.19
2022-12-01T09:27:52.527Z,100571.53
2022-12-01T09:28:39.528Z,100573.25
2022-12-01T09:29:26.677Z,100570.56
2022-12-01T09:30:13.848Z,100569.16
2022-12-01T09:31:08.905Z,100567.91
2022-12-01T09:31:59.995Z,100568.56
2022-12-01T09:32:47.083Z,100575.94
2022-12-01T09:33:34.320Z,100571.44
2022-12-01T09:34:21.393Z,100571.88
2022-12-01T09:35:08.530Z,100568.91
2022-12-01T09:35:59.718Z,100574.41